EDAC

Altenburg-Nobitz Airport

Altenburg, Germany
METAR EDAC 171250Z 21009KT 9999 FEW045 05/01 Q1020
Observed Flight Rules
Dec-17 @ 12:50 UTC (37 minutes ago) Visual Flight Rules
Wind Visibility Clouds
210° at 9 knots 10,000+ meters
  • Few at 4,500' AGL
Temperatures Readings
Current 5°C / 41°F
Dewpoint 1°C / 34°F
Humidity 76%
Altimeter 30.12" Hg
Pressure 1020 hPa
Elevation 195
METAR EDAC 171250Z 21009KT 9999 FEW045 05/01 Q1020
Observed Flight Rules
Dec-17 @ 12:50 UTC
(37 minutes ago)
VFR
Wind Visibility
210° at 9 knots 10,000+ meters
Clouds
  • Few at 4,500' AGL
Temperature Dewpoint
5°C / 41°F 1°C / 34°F
Humidity Altimeter Pressure
76% 30.12" Hg 1020 hPa